Time;durP1;ratioP1;P1;durP2;ratioP2;P2;SDS_P1;SDS_P2;PMS_P1;PMS_P2;Temp;Humidity;BMP_temperature;BMP_pressure;BME280_temperature;BME280_humidity;BME280_pressure;Samples;Min_cycle;Max_cycle;Signal;HPM_P1;HPM_P2
2023/08/11 00:00:47;;;;;;;5.53;3.67;;;16.60;92.90;;;;;;5054157;28;20770;-69
2023/08/11 00:03:16;;;;;;;5.93;3.50;;;16.60;92.90;;;;;;5054049;28;20423;-69
2023/08/11 00:05:43;;;;;;;5.70;3.77;;;16.60;93.00;;;;;;5053684;28;20571;-69
2023/08/11 00:08:15;;;;;;;4.87;4.37;;;16.60;93.30;;;;;;5053575;28;20444;-68
2023/08/11 00:10:43;;;;;;;4.83;3.57;;;16.40;93.80;;;;;;5053734;28;20469;-70
2023/08/11 00:13:15;;;;;;;5.10;3.77;;;16.40;94.10;;;;;;5053582;28;20544;-68
2023/08/11 00:15:43;;;;;;;5.57;4.10;;;16.40;94.20;;;;;;5053716;28;20421;-69
2023/08/11 00:18:11;;;;;;;6.87;4.67;;;16.50;94.30;;;;;;5053855;28;20778;-69
2023/08/11 00:20:40;;;;;;;5.10;4.10;;;16.50;94.10;;;;;;5053763;28;20435;-68
2023/08/11 00:23:12;;;;;;;3.97;3.10;;;16.50;93.60;;;;;;5053478;28;20439;-68
2023/08/11 00:25:39;;;;;;;6.70;4.30;;;16.50;93.10;;;;;;5052972;28;20440;-69
2023/08/11 00:28:08;;;;;;;4.70;3.70;;;16.40;93.00;;;;;;5053143;28;20430;-69
2023/08/11 00:30:35;;;;;;;5.23;3.70;;;16.40;93.20;;;;;;5053343;28;20927;-69
2023/08/11 00:33:05;;;;;;;4.27;3.60;;;16.50;92.90;;;;;;5053176;28;20527;-69
2023/08/11 00:35:33;;;;;;;4.80;3.43;;;16.50;92.50;;;;;;5052395;28;20436;-68
2023/08/11 00:38:02;;;;;;;6.30;3.67;;;16.40;92.40;;;;;;5053222;28;20919;-68
2023/08/11 00:40:30;;;;;;;4.57;4.07;;;16.30;92.40;;;;;;5053123;28;20441;-68
2023/08/11 00:42:57;;;;;;;5.10;3.93;;;16.40;92.30;;;;;;5053033;28;20967;-68
2023/08/11 00:45:25;;;;;;;5.03;3.60;;;16.30;91.90;;;;;;5053763;28;20436;-70
2023/08/11 00:47:53;;;;;;;5.83;3.53;;;16.30;91.80;;;;;;5053487;28;20429;-68
2023/08/11 00:50:20;;;;;;;4.50;3.20;;;16.30;91.90;;;;;;5053081;28;20469;-69
2023/08/11 00:52:52;;;;;;;4.53;3.57;;;16.20;91.80;;;;;;5053530;28;20789;-69
2023/08/11 00:55:22;;;;;;;5.73;4.30;;;16.20;91.70;;;;;;5053225;28;20440;-69
2023/08/11 00:57:51;;;;;;;5.77;3.57;;;16.20;91.80;;;;;;5053066;28;20494;-69
2023/08/11 01:00:19;;;;;;;4.93;3.50;;;16.10;92.10;;;;;;5053345;28;20444;-69
2023/08/11 01:02:47;;;;;;;6.67;4.77;;;16.00;92.30;;;;;;5053552;28;20437;-68
2023/08/11 01:05:17;;;;;;;4.40;3.50;;;16.00;92.30;;;;;;5052554;28;20475;-69
2023/08/11 01:07:54;;;;;;;4.13;3.10;;;16.00;92.10;;;;;;5052597;28;20476;-68
2023/08/11 01:10:36;;;;;;;8.93;4.43;;;16.00;92.00;;;;;;5052744;28;20537;-68
2023/08/11 01:13:12;;;;;;;4.77;3.80;;;15.90;91.80;;;;;;5053245;28;20562;-69
2023/08/11 01:15:44;;;;;;;4.03;3.23;;;15.90;91.90;;;;;;5052795;28;20993;-70
2023/08/11 01:18:12;;;;;;;6.97;3.80;;;15.80;92.10;;;;;;5052801;28;20435;-68
2023/08/11 01:20:40;;;;;;;6.73;3.73;;;15.70;92.30;;;;;;5053527;28;20483;-69
2023/08/11 01:23:09;;;;;;;5.30;4.00;;;15.70;92.70;;;;;;5052603;28;20489;-68
2023/08/11 01:25:38;;;;;;;5.07;3.60;;;15.80;92.80;;;;;;5053081;28;20469;-68
2023/08/11 01:28:06;;;;;;;7.90;3.30;;;15.70;92.90;;;;;;5052700;28;20444;-69
2023/08/11 01:30:35;;;;;;;4.33;3.40;;;15.80;93.10;;;;;;5053092;28;20527;-68
2023/08/11 01:33:02;;;;;;;4.30;3.57;;;15.80;93.20;;;;;;5052630;28;20891;-69
2023/08/11 01:35:29;;;;;;;4.90;3.47;;;15.70;93.00;;;;;;5052673;28;20438;-69
2023/08/11 01:37:56;;;;;;;5.00;4.30;;;15.70;92.90;;;;;;5052980;28;20905;-68
2023/08/11 01:40:24;;;;;;;5.27;4.00;;;15.70;92.90;;;;;;5052769;28;20502;-68
2023/08/11 01:42:55;;;;;;;4.70;3.53;;;15.70;92.90;;;;;;5052664;28;20467;-68
2023/08/11 01:45:23;;;;;;;4.83;3.70;;;15.70;93.10;;;;;;5053004;28;20429;-68
2023/08/11 01:47:55;;;;;;;5.90;4.20;;;15.60;93.70;;;;;;5055624;28;20479;-68
2023/08/11 01:50:24;;;;;;;5.10;3.30;;;15.60;94.10;;;;;;5056580;28;20428;-69
2023/08/11 01:52:54;;;;;;;3.60;2.80;;;15.60;94.20;;;;;;5056064;28;21007;-68
2023/08/11 01:55:23;;;;;;;6.20;3.70;;;15.60;94.10;;;;;;5056033;28;20436;-68
2023/08/11 01:57:52;;;;;;;4.90;3.90;;;15.60;94.20;;;;;;5056147;28;20498;-68
2023/08/11 02:00:20;;;;;;;4.73;3.90;;;15.70;94.30;;;;;;5056096;28;20434;-69
2023/08/11 02:02:50;;;;;;;5.43;3.40;;;15.70;94.00;;;;;;5056346;28;20440;-69
2023/08/11 02:05:17;;;;;;;4.77;3.83;;;15.70;93.50;;;;;;5056267;28;20472;-68
2023/08/11 02:07:49;;;;;;;6.00;3.70;;;15.70;92.90;;;;;;5055583;28;20444;-68
2023/08/11 02:10:16;;;;;;;4.23;3.43;;;15.60;92.60;;;;;;5055936;28;20500;-68
2023/08/11 02:12:43;;;;;;;6.43;4.47;;;15.60;92.60;;;;;;5055662;28;20480;-69
2023/08/11 02:15:12;;;;;;;6.27;3.53;;;15.50;92.70;;;;;;5055764;28;20480;-68
2023/08/11 02:17:39;;;;;;;6.37;4.20;;;15.50;92.80;;;;;;5055577;28;20467;-68
2023/08/11 02:20:20;;;;;;;4.60;3.40;;;15.50;92.90;;;;;;5055993;28;20430;-68
2023/08/11 02:22:47;;;;;;;4.13;2.93;;;15.40;93.00;;;;;;5056047;28;20440;-69
2023/08/11 02:25:15;;;;;;;4.20;3.40;;;15.40;93.20;;;;;;5055440;28;20449;-69
2023/08/11 02:27:44;;;;;;;3.57;2.60;;;15.40;93.20;;;;;;5055451;28;20476;-68
2023/08/11 02:30:14;;;;;;;3.73;2.90;;;15.40;93.10;;;;;;5055690;28;20852;-68
2023/08/11 02:32:41;;;;;;;3.90;2.90;;;15.30;92.40;;;;;;5053701;28;20467;-69
2023/08/11 02:35:10;;;;;;;4.20;3.20;;;15.30;92.60;;;;;;5054505;28;20470;-69
2023/08/11 02:37:37;;;;;;;4.20;3.37;;;15.20;92.70;;;;;;5055524;28;20447;-68
2023/08/11 02:40:07;;;;;;;6.03;2.90;;;15.20;92.80;;;;;;5055048;28;20444;-69
2023/08/11 02:42:35;;;;;;;4.07;3.13;;;15.20;92.60;;;;;;5054859;28;20440;-69
2023/08/11 02:45:03;;;;;;;3.50;2.53;;;15.20;92.50;;;;;;5055435;28;20427;-68
2023/08/11 02:47:32;;;;;;;3.50;2.90;;;15.20;92.40;;;;;;5055003;28;20446;-68
2023/08/11 02:50:05;;;;;;;4.17;3.10;;;15.10;92.20;;;;;;5054789;28;20479;-69
2023/08/11 02:52:31;;;;;;;3.50;2.63;;;15.10;92.00;;;;;;5054911;28;20814;-69
2023/08/11 02:54:58;;;;;;;4.20;3.03;;;15.00;92.00;;;;;;5055087;28;20443;-68
2023/08/11 02:57:25;;;;;;;4.90;3.03;;;15.00;92.40;;;;;;5054642;28;20479;-69
2023/08/11 02:59:52;;;;;;;4.30;3.50;;;15.00;92.50;;;;;;5054685;28;20443;-68
2023/08/11 03:02:19;;;;;;;4.90;3.27;;;15.00;92.40;;;;;;5054762;28;20864;-69
2023/08/11 03:04:48;;;;;;;4.17;2.93;;;15.00;92.30;;;;;;5054715;28;20473;-68
2023/08/11 03:07:20;;;;;;;3.80;2.60;;;14.90;92.30;;;;;;5054386;28;20440;-69
2023/08/11 03:09:53;;;;;;;3.37;2.40;;;14.90;92.10;;;;;;5054570;28;20464;-68
2023/08/11 03:12:20;;;;;;;4.27;2.50;;;14.90;92.20;;;;;;5054233;28;21023;-69
2023/08/11 03:14:47;;;;;;;4.10;3.00;;;14.80;92.40;;;;;;5054915;28;20500;-68
2023/08/11 03:17:14;;;;;;;3.87;2.97;;;14.80;92.60;;;;;;5054773;28;20472;-68
2023/08/11 03:19:41;;;;;;;5.40;4.03;;;14.80;92.60;;;;;;5054677;28;20464;-69
2023/08/11 03:22:09;;;;;;;5.33;3.73;;;14.80;92.60;;;;;;5054389;28;20470;-69
2023/08/11 03:24:36;;;;;;;3.67;2.40;;;14.80;92.60;;;;;;5054071;28;20982;-69
2023/08/11 03:27:03;;;;;;;4.70;3.43;;;14.70;92.80;;;;;;5054227;28;20925;-69
2023/08/11 03:29:30;;;;;;;4.40;3.77;;;14.70;92.90;;;;;;5054498;28;20498;-68
2023/08/11 03:31:57;;;;;;;4.43;3.07;;;14.60;92.70;;;;;;5054247;28;20467;-73
2023/08/11 03:34:24;;;;;;;4.87;3.30;;;14.60;92.70;;;;;;5040136;28;20472;-68
2023/08/11 03:36:52;;;;;;;4.77;3.70;;;14.60;92.60;;;;;;5054050;28;20475;-68
2023/08/11 03:39:21;;;;;;;4.10;3.23;;;14.60;92.70;;;;;;5054311;28;20435;-69
2023/08/11 03:41:49;;;;;;;4.50;3.30;;;14.60;92.70;;;;;;5054389;28;20482;-69
2023/08/11 03:44:16;;;;;;;4.13;2.67;;;14.60;92.80;;;;;;5054093;28;20440;-69
2023/08/11 03:46:43;;;;;;;4.80;3.00;;;14.70;92.80;;;;;;5054089;28;20553;-68
2023/08/11 03:49:11;;;;;;;3.97;3.10;;;14.70;92.70;;;;;;5054005;28;20942;-68
2023/08/11 03:51:38;;;;;;;3.37;2.70;;;14.60;92.90;;;;;;5053971;28;20432;-69
2023/08/11 03:54:06;;;;;;;5.00;3.70;;;14.60;93.10;;;;;;5054033;28;20529;-69
2023/08/11 03:56:35;;;;;;;4.00;2.90;;;14.60;93.00;;;;;;5054397;28;20446;-69
2023/08/11 03:59:02;;;;;;;3.67;2.97;;;14.60;93.00;;;;;;5053473;28;20469;-69
2023/08/11 04:01:29;;;;;;;3.90;3.20;;;14.60;93.20;;;;;;5054061;28;20791;-69
2023/08/11 04:03:56;;;;;;;4.47;3.43;;;14.50;93.20;;;;;;5053048;28;20527;-68
2023/08/11 04:06:28;;;;;;;7.80;3.50;;;14.50;93.40;;;;;;5053778;28;20471;-75
2023/08/11 04:08:55;;;;;;;5.77;3.67;;;14.50;93.50;;;;;;5053469;28;20423;-70
2023/08/11 04:11:22;;;;;;;10.90;4.10;;;14.50;93.60;;;;;;5053423;28;20588;-68
2023/08/11 04:13:51;;;;;;;5.07;4.00;;;14.50;94.00;;;;;;5053922;28;20869;-68
2023/08/11 04:16:18;;;;;;;9.03;4.50;;;14.50;94.30;;;;;;5053292;28;20472;-68
2023/08/11 04:18:45;;;;;;;7.80;3.17;;;14.50;94.30;;;;;;5053535;28;20478;-68
2023/08/11 04:21:12;;;;;;;4.43;3.63;;;14.50;94.10;;;;;;5053612;28;20475;-69
2023/08/11 04:23:40;;;;;;;5.00;3.53;;;14.50;93.80;;;;;;5053402;28;20444;-68
2023/08/11 04:26:07;;;;;;;4.33;3.03;;;14.60;93.40;;;;;;5053647;28;20443;-68
2023/08/11 04:28:38;;;;;;;4.90;3.00;;;14.50;93.20;;;;;;5053389;28;20468;-68
2023/08/11 04:31:07;;;;;;;5.50;3.50;;;14.50;93.20;;;;;;5053390;28;20428;-68
2023/08/11 04:33:34;;;;;;;3.73;3.17;;;14.50;93.40;;;;;;5053323;28;20478;-69
2023/08/11 04:36:06;;;;;;;4.63;3.27;;;14.50;93.80;;;;;;5053204;28;20439;-68
2023/08/11 04:38:33;;;;;;;4.57;3.67;;;14.50;94.00;;;;;;5053566;28;20477;-68
2023/08/11 04:41:00;;;;;;;4.47;4.07;;;14.50;94.50;;;;;;5053426;28;20833;-69
2023/08/11 04:43:26;;;;;;;6.67;4.03;;;14.50;94.80;;;;;;5051222;28;20474;-68
2023/08/11 04:45:54;;;;;;;6.30;3.40;;;14.50;95.00;;;;;;5052488;28;20527;-68
2023/08/11 04:48:22;;;;;;;5.47;4.00;;;14.50;95.20;;;;;;5052814;28;20434;-69
2023/08/11 04:50:51;;;;;;;4.00;3.60;;;14.50;95.70;;;;;;5052417;28;20490;-69
2023/08/11 04:53:20;;;;;;;6.30;4.53;;;14.50;96.20;;;;;;5052260;28;20489;-70
2023/08/11 04:55:53;;;;;;;8.57;4.43;;;14.50;96.90;;;;;;5048462;28;20536;-70
2023/08/11 04:58:20;;;;;;;4.70;3.70;;;14.60;97.20;;;;;;5052396;28;20511;-69
2023/08/11 05:00:48;;;;;;;5.43;4.60;;;14.70;97.30;;;;;;5052074;28;20473;-69
2023/08/11 05:03:15;;;;;;;7.63;4.30;;;14.80;97.10;;;;;;5052386;28;20471;-70
2023/08/11 05:05:44;;;;;;;6.23;4.17;;;14.90;97.10;;;;;;5051949;28;20472;-69
2023/08/11 05:08:12;;;;;;;5.27;4.20;;;14.90;97.10;;;;;;5052555;28;20474;-69
2023/08/11 05:10:44;;;;;;;6.10;4.10;;;14.90;97.10;;;;;;5051514;28;20492;-69
2023/08/11 05:13:12;;;;;;;4.40;3.47;;;14.90;97.40;;;;;;5052299;28;20549;-69
2023/08/11 05:15:40;;;;;;;6.33;4.50;;;15.00;97.60;;;;;;5051558;28;20446;-69
2023/08/11 05:18:07;;;;;;;4.90;3.63;;;15.10;97.80;;;;;;5052189;28;20984;-68
2023/08/11 05:20:34;;;;;;;5.20;3.80;;;15.20;98.00;;;;;;5052702;28;20446;-69
2023/08/11 05:23:04;;;;;;;5.27;4.00;;;15.20;98.40;;;;;;5052684;28;20446;-72
2023/08/11 05:25:42;;;;;;;5.00;4.33;;;15.20;98.80;;;;;;5050973;28;20442;-72
2023/08/11 05:28:09;;;;;;;5.23;4.20;;;15.20;99.00;;;;;;5042767;28;20443;-70
2023/08/11 05:30:37;;;;;;;6.17;4.70;;;15.20;99.60;;;;;;5054529;28;20493;-69
2023/08/11 05:33:11;;;;;;;5.20;4.13;;;15.30;99.70;;;;;;5055448;28;20488;-69
2023/08/11 05:35:39;;;;;;;6.70;4.17;;;15.40;99.90;;;;;;5055156;28;20464;-69
2023/08/11 05:38:08;;;;;;;7.53;4.90;;;15.50;99.90;;;;;;5055640;28;20467;-69
2023/08/11 05:40:39;;;;;;;6.17;4.80;;;15.60;99.90;;;;;;5056039;28;20471;-68
2023/08/11 05:43:07;;;;;;;6.70;5.13;;;15.70;99.90;;;;;;5054553;28;20464;-69
2023/08/11 05:45:34;;;;;;;7.37;5.40;;;15.80;99.90;;;;;;5056055;28;20533;-69
2023/08/11 05:48:02;;;;;;;7.00;4.27;;;15.90;99.90;;;;;;5055727;28;20498;-69
2023/08/11 05:50:29;;;;;;;6.03;4.40;;;16.00;99.90;;;;;;5055966;28;20484;-71
2023/08/11 05:52:57;;;;;;;6.87;5.10;;;16.00;99.90;;;;;;5054446;28;20497;-70
2023/08/11 05:55:26;;;;;;;9.13;5.07;;;16.10;99.90;;;;;;5055372;28;20444;-69
2023/08/11 05:57:53;;;;;;;5.60;4.33;;;16.20;99.90;;;;;;5054459;28;20437;-69
2023/08/11 06:00:23;;;;;;;7.17;4.90;;;16.30;99.90;;;;;;5035818;28;20469;-69
2023/08/11 06:02:52;;;;;;;6.90;4.90;;;16.40;99.90;;;;;;5045759;28;20444;-69
2023/08/11 06:05:21;;;;;;;5.60;3.83;;;16.50;99.90;;;;;;5055735;28;20495;-68
2023/08/11 06:07:49;;;;;;;5.20;4.10;;;16.60;99.90;;;;;;5055311;28;20935;-70
2023/08/11 06:10:16;;;;;;;6.33;4.20;;;16.60;99.90;;;;;;5043461;28;20473;-68
2023/08/11 06:12:44;;;;;;;8.97;4.50;;;16.60;99.80;;;;;;5034974;28;20469;-69
2023/08/11 06:15:11;;;;;;;5.30;3.93;;;16.70;99.90;;;;;;5035178;28;20476;-69
2023/08/11 06:17:38;;;;;;;5.13;4.17;;;16.90;99.90;;;;;;5042660;28;21002;-71
2023/08/11 06:20:09;;;;;;;6.17;3.60;;;16.90;99.90;;;;;;5053289;28;20948;-70
2023/08/11 06:22:36;;;;;;;5.17;3.83;;;17.10;99.90;;;;;;5054923;28;20866;-68
2023/08/11 06:25:03;;;;;;;6.23;4.80;;;17.20;99.90;;;;;;5054607;28;20491;-68
2023/08/11 06:27:30;;;;;;;6.93;4.20;;;17.20;99.90;;;;;;5054570;28;21014;-69
2023/08/11 06:29:59;;;;;;;6.40;3.70;;;17.40;99.90;;;;;;5054483;28;20925;-69
2023/08/11 06:32:25;;;;;;;9.83;6.70;;;17.50;99.90;;;;;;5054270;28;20477;-69
2023/08/11 06:34:52;;;;;;;7.33;4.97;;;17.60;99.80;;;;;;5054677;28;20505;-70
2023/08/11 06:37:25;;;;;;;5.20;3.63;;;17.70;99.80;;;;;;5055768;28;20524;-68
2023/08/11 06:39:54;;;;;;;8.43;4.10;;;17.80;99.00;;;;;;5055046;28;20466;-69
2023/08/11 06:42:21;;;;;;;6.20;3.50;;;17.90;99.00;;;;;;5055290;28;20520;-69
2023/08/11 06:44:48;;;;;;;5.23;3.67;;;18.00;99.20;;;;;;5055243;28;20469;-69
2023/08/11 06:47:16;;;;;;;5.43;3.63;;;18.10;99.40;;;;;;5055566;28;20466;-69
2023/08/11 06:49:44;;;;;;;5.27;3.73;;;18.30;99.70;;;;;;5055532;28;20477;-68
2023/08/11 06:52:11;;;;;;;4.30;3.30;;;18.50;99.50;;;;;;5055505;28;20469;-69
2023/08/11 06:54:39;;;;;;;5.80;3.03;;;18.60;98.80;;;;;;5054864;28;20535;-69
2023/08/11 06:57:07;;;;;;;4.70;3.20;;;18.60;98.30;;;;;;5054909;28;20481;-68
2023/08/11 06:59:34;;;;;;;9.07;3.37;;;18.70;97.80;;;;;;5055027;28;20477;-69
2023/08/11 07:02:01;;;;;;;5.83;3.00;;;18.80;98.10;;;;;;5052856;28;20936;-69
2023/08/11 07:04:29;;;;;;;4.50;3.40;;;18.90;98.40;;;;;;5055129;28;20792;-69
2023/08/11 07:06:56;;;;;;;6.47;4.43;;;19.10;98.50;;;;;;5055309;28;20796;-69
2023/08/11 07:09:24;;;;;;;4.57;3.03;;;19.20;98.00;;;;;;5054509;28;20447;-69
2023/08/11 07:11:51;;;;;;;5.30;3.57;;;19.40;97.80;;;;;;5055226;28;20443;-69
2023/08/11 07:14:18;;;;;;;5.20;3.20;;;19.50;97.80;;;;;;5054607;28;21106;-69
2023/08/11 07:16:45;;;;;;;4.20;3.27;;;19.70;97.90;;;;;;5054530;28;20423;-69
2023/08/11 07:19:12;;;;;;;6.97;3.47;;;19.90;97.70;;;;;;5054576;28;20437;-69
2023/08/11 07:21:40;;;;;;;9.70;2.83;;;20.00;97.30;;;;;;5054544;28;20469;-69
2023/08/11 07:24:08;;;;;;;4.77;2.97;;;20.10;97.00;;;;;;5054743;28;20522;-69
2023/08/11 07:26:35;;;;;;;4.20;2.60;;;20.30;96.40;;;;;;5054656;28;20502;-69
2023/08/11 07:29:02;;;;;;;4.30;3.10;;;20.40;96.20;;;;;;5054771;28;20447;-69
2023/08/11 07:31:29;;;;;;;5.63;2.97;;;20.60;96.30;;;;;;5054674;28;20466;-69
2023/08/11 07:33:56;;;;;;;4.67;2.50;;;20.70;96.30;;;;;;5054582;28;20558;-69
2023/08/11 07:36:23;;;;;;;4.40;3.67;;;20.80;95.60;;;;;;5054660;28;20482;-69
2023/08/11 07:38:51;;;;;;;5.20;3.40;;;20.90;95.30;;;;;;5054584;28;20865;-69
2023/08/11 07:41:18;;;;;;;5.93;3.50;;;21.00;95.70;;;;;;5054028;28;20514;-69
2023/08/11 07:43:45;;;;;;;4.57;2.93;;;21.10;96.00;;;;;;5054390;28;20449;-69
2023/08/11 07:46:12;;;;;;;6.30;3.40;;;21.30;96.00;;;;;;5054565;28;20468;-68
2023/08/11 07:48:39;;;;;;;4.63;2.73;;;21.40;95.50;;;;;;5054050;28;20443;-69
2023/08/11 07:51:06;;;;;;;4.70;3.30;;;21.60;95.30;;;;;;5054346;28;20766;-69
2023/08/11 07:53:33;;;;;;;5.37;2.93;;;21.70;95.00;;;;;;5054240;28;20505;-69
2023/08/11 07:56:02;;;;;;;4.13;2.70;;;21.80;94.30;;;;;;5053662;28;20435;-69
2023/08/11 07:58:28;;;;;;;5.90;3.10;;;21.90;94.20;;;;;;5053865;28;20429;-69
2023/08/11 08:00:55;;;;;;;3.83;2.50;;;22.10;94.70;;;;;;5053669;28;21010;-69
2023/08/11 08:03:23;;;;;;;5.07;2.67;;;22.20;94.40;;;;;;5054097;28;20471;-69
2023/08/11 08:05:50;;;;;;;6.07;3.17;;;22.40;93.70;;;;;;5053831;28;20960;-69
2023/08/11 08:08:21;;;;;;;4.50;3.10;;;22.60;93.30;;;;;;5052175;28;20471;-69
2023/08/11 08:10:48;;;;;;;4.60;2.40;;;22.70;92.70;;;;;;5053370;28;20512;-69
2023/08/11 08:13:18;;;;;;;5.77;3.23;;;22.80;91.50;;;;;;5053401;28;20521;-70
2023/08/11 08:15:45;;;;;;;4.03;3.10;;;22.90;91.40;;;;;;5053594;28;20896;-69
2023/08/11 08:18:12;;;;;;;6.00;3.30;;;23.10;91.50;;;;;;5054012;28;20425;-69
2023/08/11 08:20:39;;;;;;;5.60;3.40;;;23.20;91.10;;;;;;5052937;28;20787;-69
2023/08/11 08:23:07;;;;;;;7.70;3.17;;;23.40;90.90;;;;;;5053483;28;20429;-69
2023/08/11 08:25:34;;;;;;;5.00;2.50;;;23.50;91.00;;;;;;5053665;28;20524;-69
2023/08/11 08:28:01;;;;;;;3.80;2.43;;;23.70;90.70;;;;;;5053143;28;20464;-70
2023/08/11 08:30:29;;;;;;;4.73;2.57;;;23.80;90.90;;;;;;5053062;28;20455;-69
2023/08/11 08:32:56;;;;;;;9.03;3.47;;;24.00;90.90;;;;;;5053414;28;20520;-69
2023/08/11 08:35:24;;;;;;;4.37;2.63;;;24.20;90.00;;;;;;5052750;28;20886;-69
2023/08/11 08:37:51;;;;;;;5.23;2.83;;;24.30;88.40;;;;;;5053238;28;20912;-69
2023/08/11 08:40:18;;;;;;;5.20;3.03;;;24.50;88.00;;;;;;5053186;28;20520;-69
2023/08/11 08:42:45;;;;;;;3.97;2.73;;;24.60;87.70;;;;;;5053489;28;20502;-69
2023/08/11 08:45:12;;;;;;;4.63;2.80;;;24.80;87.30;;;;;;5053115;28;20920;-69
2023/08/11 08:47:43;;;;;;;4.50;2.90;;;24.90;82.80;;;;;;5053490;28;20437;-69
2023/08/11 08:50:11;;;;;;;4.80;3.00;;;25.10;81.10;;;;;;5053528;28;20846;-69
2023/08/11 08:52:38;;;;;;;3.47;2.50;;;25.20;76.60;;;;;;5053750;28;20472;-69
2023/08/11 08:55:06;;;;;;;3.90;2.87;;;25.20;74.50;;;;;;5052909;28;20556;-69
2023/08/11 08:57:33;;;;;;;4.53;2.93;;;25.30;75.60;;;;;;5056449;28;20433;-69
2023/08/11 09:00:00;;;;;;;4.20;2.63;;;25.40;77.10;;;;;;5057494;28;20464;-69
2023/08/11 09:02:29;;;;;;;4.63;2.87;;;25.50;78.50;;;;;;5057098;28;20461;-69
2023/08/11 09:04:57;;;;;;;4.70;2.70;;;25.70;77.30;;;;;;5057409;28;20460;-69
2023/08/11 09:07:24;;;;;;;3.67;2.60;;;25.80;75.10;;;;;;5057464;28;20848;-69
2023/08/11 09:09:51;;;;;;;4.60;2.90;;;26.00;73.20;;;;;;5056934;28;20465;-70
2023/08/11 09:12:18;;;;;;;6.13;3.10;;;26.10;73.00;;;;;;5057398;28;20486;-69
2023/08/11 09:14:45;;;;;;;4.33;2.60;;;26.20;71.10;;;;;;5056816;28;20531;-69
2023/08/11 09:17:14;;;;;;;6.10;2.80;;;26.40;72.50;;;;;;5057280;28;20433;-69
2023/08/11 09:19:44;;;;;;;11.83;3.07;;;26.50;70.30;;;;;;5057172;28;20867;-70
2023/08/11 09:22:12;;;;;;;5.07;3.00;;;26.70;69.90;;;;;;5057136;28;20445;-69
2023/08/11 09:24:40;;;;;;;4.40;2.53;;;26.80;68.20;;;;;;5057024;28;20449;-69
2023/08/11 09:27:07;;;;;;;5.77;2.87;;;26.90;66.50;;;;;;5057241;28;20433;-69
2023/08/11 09:29:36;;;;;;;9.50;3.37;;;27.00;66.10;;;;;;5056941;28;20443;-69
2023/08/11 09:32:04;;;;;;;4.10;2.60;;;27.20;62.90;;;;;;5056657;28;20515;-69
2023/08/11 09:34:31;;;;;;;3.73;2.70;;;27.30;62.60;;;;;;5056920;28;20475;-69
2023/08/11 09:36:58;;;;;;;7.50;3.50;;;27.40;63.00;;;;;;5056668;28;20529;-69
2023/08/11 09:39:30;;;;;;;4.10;2.70;;;27.50;61.30;;;;;;5056394;28;20923;-71
2023/08/11 09:41:56;;;;;;;4.33;3.07;;;27.60;60.80;;;;;;5056497;28;20893;-69
2023/08/11 09:44:23;;;;;;;3.53;2.30;;;27.80;59.00;;;;;;5056668;28;20464;-69
2023/08/11 09:46:50;;;;;;;5.73;3.00;;;27.90;59.30;;;;;;5056658;28;20469;-69
2023/08/11 09:49:18;;;;;;;4.70;2.77;;;27.90;58.80;;;;;;5054056;28;20891;-69
2023/08/11 09:51:46;;;;;;;3.90;2.77;;;28.10;58.60;;;;;;5056532;28;20865;-69
2023/08/11 09:54:15;;;;;;;4.90;2.60;;;28.20;58.30;;;;;;5056260;28;20504;-69
2023/08/11 09:56:44;;;;;;;6.30;2.83;;;28.40;58.10;;;;;;5056253;28;21039;-69
2023/08/11 09:59:12;;;;;;;3.90;2.53;;;28.50;57.80;;;;;;5056331;28;20475;-70
2023/08/11 10:01:41;;;;;;;5.00;2.80;;;28.60;56.70;;;;;;5056299;28;20429;-69
2023/08/11 10:04:20;;;;;;;5.57;3.10;;;28.70;56.80;;;;;;5056137;28;20461;-70
2023/08/11 10:06:51;;;;;;;3.77;2.73;;;28.80;55.40;;;;;;5056163;28;20483;-69
2023/08/11 10:09:22;;;;;;;4.50;2.63;;;28.90;55.90;;;;;;5054112;28;20449;-69
2023/08/11 10:11:52;;;;;;;4.00;2.80;;;29.00;56.20;;;;;;5056111;28;20480;-69
2023/08/11 10:14:22;;;;;;;4.33;3.37;;;29.20;56.30;;;;;;5055592;28;20484;-69
2023/08/11 10:16:50;;;;;;;5.03;2.53;;;29.30;56.10;;;;;;5055989;28;20473;-70
2023/08/11 10:19:18;;;;;;;4.03;2.60;;;29.40;51.90;;;;;;5055860;28;20445;-69
2023/08/11 10:21:45;;;;;;;4.00;2.87;;;29.30;50.70;;;;;;5055535;28;20465;-69
2023/08/11 10:24:12;;;;;;;4.10;2.37;;;29.30;52.40;;;;;;5055678;28;20886;-71
2023/08/11 10:26:40;;;;;;;4.47;2.83;;;29.30;50.60;;;;;;5055667;28;20476;-69
2023/08/11 10:29:11;;;;;;;4.00;2.80;;;29.40;50.50;;;;;;5055680;28;20517;-69
2023/08/11 10:31:53;;;;;;;6.37;2.30;;;29.50;52.40;;;;;;5055709;28;20506;-70
2023/08/11 10:34:22;;;;;;;3.20;2.13;;;29.50;51.60;;;;;;5055718;28;20829;-69
2023/08/11 10:36:49;;;;;;;4.90;3.20;;;29.70;51.70;;;;;;5055579;28;20517;-69
2023/08/11 10:39:19;;;;;;;3.90;2.27;;;29.70;52.30;;;;;;5055335;28;20465;-69
2023/08/11 10:41:47;;;;;;;4.83;2.50;;;29.80;51.30;;;;;;5055102;28;20459;-69
2023/08/11 10:44:19;;;;;;;4.23;2.77;;;29.90;50.60;;;;;;5055070;28;20469;-70
2023/08/11 10:46:47;;;;;;;4.53;2.07;;;30.00;50.70;;;;;;5055360;28;20424;-69
2023/08/11 10:49:33;;;;;;;4.50;2.40;;;30.10;48.90;;;;;;5055323;28;20476;-69
2023/08/11 10:52:01;;;;;;;5.03;2.40;;;30.20;48.60;;;;;;5055363;28;20555;-69
2023/08/11 10:54:33;;;;;;;4.23;2.30;;;30.20;48.40;;;;;;5055061;28;20563;-69
2023/08/11 10:57:04;;;;;;;4.77;2.40;;;30.30;47.60;;;;;;5055293;28;20457;-69
2023/08/11 10:59:34;;;;;;;3.63;2.33;;;30.40;46.70;;;;;;5055161;28;20587;-69
2023/08/11 11:02:01;;;;;;;3.23;2.40;;;30.50;46.80;;;;;;5054697;28;20433;-69
2023/08/11 11:04:30;;;;;;;4.40;2.23;;;30.50;46.50;;;;;;5055065;28;20477;-69
2023/08/11 11:06:59;;;;;;;3.90;2.70;;;30.50;45.60;;;;;;5054689;28;20520;-69
2023/08/11 11:09:35;;;;;;;3.30;2.33;;;30.50;47.00;;;;;;5054732;28;20465;-69
2023/08/11 11:12:02;;;;;;;3.87;2.37;;;30.50;45.90;;;;;;5053119;28;20528;-69
2023/08/11 11:14:29;;;;;;;6.30;2.27;;;30.60;45.40;;;;;;5054544;28;20517;-69
2023/08/11 11:16:59;;;;;;;4.40;2.60;;;30.60;46.30;;;;;;5054491;28;20916;-70
2023/08/11 11:19:26;;;;;;;3.50;2.53;;;30.60;48.70;;;;;;5054506;28;20524;-69
2023/08/11 11:21:53;;;;;;;3.20;2.17;;;30.70;49.30;;;;;;5054102;28;20465;-69
2023/08/11 11:24:20;;;;;;;3.93;2.50;;;30.80;49.90;;;;;;5053920;28;20522;-70
2023/08/11 11:26:47;;;;;;;3.80;2.53;;;30.90;49.10;;;;;;5054755;28;20465;-69
2023/08/11 11:29:14;;;;;;;3.57;2.33;;;31.00;47.90;;;;;;5052710;28;20847;-69
2023/08/11 11:31:42;;;;;;;3.47;2.37;;;31.00;48.30;;;;;;5053853;28;20465;-69
2023/08/11 11:34:10;;;;;;;4.20;3.20;;;31.00;48.40;;;;;;5054311;28;20979;-69
2023/08/11 11:36:38;;;;;;;5.20;2.80;;;31.10;47.20;;;;;;5054476;28;20509;-69
2023/08/11 11:39:07;;;;;;;4.83;2.83;;;31.10;46.00;;;;;;5054434;28;20473;-69
2023/08/11 11:41:35;;;;;;;5.60;3.13;;;31.10;44.20;;;;;;5053189;28;21021;-69
2023/08/11 11:44:02;;;;;;;3.57;2.60;;;31.00;45.90;;;;;;5052132;28;20468;-69
2023/08/11 11:46:32;;;;;;;3.30;2.40;;;31.10;46.80;;;;;;5054262;28;20927;-69
2023/08/11 11:48:59;;;;;;;4.80;2.50;;;31.10;47.40;;;;;;5054311;28;20472;-69
2023/08/11 11:51:30;;;;;;;4.90;3.10;;;31.20;47.30;;;;;;5054175;28;20436;-69
2023/08/11 11:53:59;;;;;;;4.50;3.53;;;31.30;47.50;;;;;;5054035;28;20457;-69
2023/08/11 11:56:31;;;;;;;5.10;2.50;;;31.40;46.70;;;;;;5053716;28;20477;-70
2023/08/11 11:58:58;;;;;;;4.30;3.00;;;31.40;45.50;;;;;;5052471;28;20487;-69
2023/08/11 12:01:27;;;;;;;4.60;2.63;;;31.40;44.70;;;;;;5052097;28;20445;-69
2023/08/11 12:03:58;;;;;;;3.60;2.60;;;31.40;45.70;;;;;;5053698;28;20488;-69
2023/08/11 12:06:27;;;;;;;5.00;3.20;;;31.40;44.80;;;;;;5053933;28;20426;-69
2023/08/11 12:09:03;;;;;;;4.70;2.37;;;31.50;45.50;;;;;;5053834;28;20495;-69
2023/08/11 12:11:35;;;;;;;3.53;2.27;;;31.50;44.50;;;;;;5054200;28;20539;-69
2023/08/11 12:14:07;;;;;;;4.00;2.43;;;31.40;45.30;;;;;;5053974;28;20422;-69
2023/08/11 12:16:38;;;;;;;3.37;2.50;;;31.40;44.40;;;;;;5053768;28;20815;-69
2023/08/11 12:19:07;;;;;;;5.77;2.70;;;31.40;44.30;;;;;;5053881;28;20422;-69
2023/08/11 12:21:36;;;;;;;4.70;2.53;;;31.40;42.80;;;;;;5053621;28;20438;-69
2023/08/11 12:24:06;;;;;;;3.77;3.00;;;31.40;43.30;;;;;;5053492;28;20770;-69
2023/08/11 12:26:38;;;;;;;3.70;2.73;;;31.40;44.40;;;;;;5053296;28;20450;-69
2023/08/11 12:29:07;;;;;;;3.90;2.63;;;31.40;45.20;;;;;;5053199;28;20461;-69
2023/08/11 12:31:34;;;;;;;4.00;2.40;;;31.40;44.10;;;;;;5052555;28;20434;-69
2023/08/11 12:34:01;;;;;;;4.10;2.97;;;31.40;45.60;;;;;;5053652;28;20487;-69
2023/08/11 12:36:29;;;;;;;3.33;2.43;;;31.50;47.70;;;;;;5053142;28;20481;-69
2023/08/11 12:39:01;;;;;;;3.80;2.60;;;31.60;47.40;;;;;;5053532;28;20469;-69
2023/08/11 12:41:29;;;;;;;3.80;2.53;;;31.70;45.20;;;;;;5053399;28;20464;-69
2023/08/11 12:43:56;;;;;;;3.50;2.43;;;31.70;44.20;;;;;;5052922;28;20438;-69
2023/08/11 12:46:23;;;;;;;4.77;2.50;;;31.70;45.40;;;;;;5053489;28;20476;-69
2023/08/11 12:48:55;;;;;;;5.97;2.83;;;31.60;45.20;;;;;;5053189;28;20477;-69
2023/08/11 12:51:22;;;;;;;4.03;2.47;;;31.60;44.70;;;;;;5053407;28;20449;-69
2023/08/11 12:53:49;;;;;;;3.07;2.07;;;31.60;44.70;;;;;;5052902;28;20927;-69